createdAt,value
2023-01-29T00:02:12.374Z,5.00
2023-01-29T00:04:39.311Z,4.63
2023-01-29T00:07:06.435Z,4.60
2023-01-29T00:09:33.421Z,4.97
2023-01-29T00:12:00.416Z,5.07
2023-01-29T00:14:27.645Z,5.30
2023-01-29T00:16:55.092Z,5.20
2023-01-29T00:19:22.244Z,5.30
2023-01-29T00:21:49.217Z,5.40
2023-01-29T00:24:16.389Z,4.77
2023-01-29T00:26:43.447Z,5.13
2023-01-29T00:29:10.849Z,4.90
2023-01-29T00:31:38.079Z,5.40
2023-01-29T00:34:05.124Z,6.00
2023-01-29T00:36:32.072Z,5.90
2023-01-29T00:39:02.701Z,6.27
2023-01-29T00:41:51.142Z,6.10
2023-01-29T00:44:37.313Z,6.47
2023-01-29T00:47:05.437Z,6.57
2023-01-29T00:49:32.475Z,7.53
2023-01-29T00:52:17.741Z,7.97
2023-01-29T00:54:44.726Z,6.57
2023-01-29T00:57:11.716Z,7.60
2023-01-29T00:59:38.732Z,7.90
2023-01-29T01:02:24.392Z,7.57
2023-01-29T01:04:51.480Z,7.97
2023-01-29T01:07:18.517Z,7.60
2023-01-29T01:10:11.832Z,9.20
2023-01-29T01:12:38.896Z,8.40
2023-01-29T01:15:06.395Z,8.00
2023-01-29T01:17:33.370Z,8.40
2023-01-29T01:20:00.317Z,8.10
2023-01-29T01:22:27.821Z,8.00
2023-01-29T01:24:54.729Z,8.80
2023-01-29T01:27:21.710Z,8.13
2023-01-29T01:29:48.708Z,8.50
2023-01-29T01:32:16.064Z,7.47
2023-01-29T01:34:45.335Z,7.90
2023-01-29T01:37:12.336Z,9.63
2023-01-29T01:39:39.254Z,8.40
2023-01-29T01:42:12.685Z,8.33
2023-01-29T01:45:01.198Z,7.50
2023-01-29T01:47:44.354Z,8.80
2023-01-29T01:50:35.572Z,8.73
2023-01-29T01:53:19.137Z,9.43
2023-01-29T01:55:57.839Z,9.40
2023-01-29T01:58:33.884Z,9.00
2023-01-29T02:01:02.467Z,9.90
2023-01-29T02:03:55.004Z,9.53
2023-01-29T02:06:40.500Z,8.90
2023-01-29T02:09:38.820Z,8.70
2023-01-29T02:12:12.204Z,8.90
2023-01-29T02:14:41.458Z,8.67
2023-01-29T02:17:12.196Z,8.70
2023-01-29T02:20:19.881Z,9.33
2023-01-29T02:23:14.609Z,9.00
2023-01-29T02:26:27.279Z,8.80
2023-01-29T02:29:26.997Z,9.43
2023-01-29T02:32:21.559Z,8.93
2023-01-29T02:35:37.830Z,8.97
2023-01-29T02:38:38.666Z,9.53
2023-01-29T02:41:24.061Z,9.00
2023-01-29T02:44:10.216Z,9.40
2023-01-29T02:47:16.655Z,9.60
2023-01-29T02:49:49.401Z,8.97
2023-01-29T02:52:31.590Z,9.17
2023-01-29T02:55:13.880Z,8.27
2023-01-29T02:57:44.903Z,9.67
2023-01-29T03:00:39.405Z,9.60
2023-01-29T03:03:13.021Z,8.97
2023-01-29T03:06:06.349Z,9.87
2023-01-29T03:08:50.161Z,10.30
2023-01-29T03:11:18.258Z,9.97
2023-01-29T03:13:57.431Z,9.90
2023-01-29T03:16:38.272Z,10.33
2023-01-29T03:19:34.498Z,10.57
2023-01-29T03:22:04.776Z,9.80
2023-01-29T03:24:57.737Z,9.47
2023-01-29T03:27:50.460Z,9.43
2023-01-29T03:30:38.746Z,9.30
2023-01-29T03:33:10.382Z,9.60
2023-01-29T03:35:56.442Z,9.40
2023-01-29T03:38:29.542Z,10.07
2023-01-29T03:41:06.806Z,9.73
2023-01-29T03:44:01.707Z,10.20
2023-01-29T03:47:09.322Z,9.70
2023-01-29T03:50:02.414Z,9.80
2023-01-29T03:52:50.842Z,10.50
2023-01-29T03:55:35.472Z,9.53
2023-01-29T03:58:23.918Z,9.70
2023-01-29T04:01:11.214Z,10.70
2023-01-29T04:03:42.471Z,9.67
2023-01-29T04:06:13.675Z,10.00
2023-01-29T04:09:03.618Z,9.37
2023-01-29T04:11:33.771Z,9.40
2023-01-29T04:14:00.887Z,10.37
2023-01-29T04:16:35.083Z,10.77
2023-01-29T04:19:02.307Z,10.23
2023-01-29T04:21:32.882Z,10.67
2023-01-29T04:23:59.936Z,10.20
2023-01-29T04:26:42.860Z,10.30
2023-01-29T04:29:38.805Z,9.83
2023-01-29T04:32:28.877Z,10.13
2023-01-29T04:35:08.868Z,10.57
2023-01-29T04:37:50.902Z,11.13
2023-01-29T04:40:33.888Z,10.40
2023-01-29T04:43:41.489Z,11.23
2023-01-29T04:46:46.586Z,10.50
2023-01-29T04:49:45.182Z,10.67
2023-01-29T04:52:45.490Z,11.40
2023-01-29T04:55:33.417Z,11.13
2023-01-29T04:58:12.575Z,11.40
2023-01-29T05:00:45.569Z,12.37
2023-01-29T05:03:15.580Z,10.90
2023-01-29T05:05:46.927Z,12.13
2023-01-29T05:08:19.305Z,10.77
2023-01-29T05:10:48.787Z,12.50
2023-01-29T05:13:16.341Z,10.90
2023-01-29T05:16:13.189Z,12.40
2023-01-29T05:18:41.080Z,11.23
2023-01-29T05:21:09.380Z,13.20
2023-01-29T05:23:36.791Z,13.13
2023-01-29T05:26:04.802Z,13.30
2023-01-29T05:28:31.848Z,12.50
2023-01-29T05:30:59.021Z,12.03
2023-01-29T05:33:29.448Z,12.00
2023-01-29T05:35:59.375Z,11.70
2023-01-29T05:38:26.451Z,13.33
2023-01-29T05:40:54.088Z,12.00
2023-01-29T05:43:24.807Z,14.03
2023-01-29T05:46:00.274Z,12.30
2023-01-29T05:48:29.163Z,12.20
2023-01-29T05:51:05.929Z,13.07
2023-01-29T05:53:34.040Z,13.33
2023-01-29T05:56:05.533Z,12.93
2023-01-29T05:58:33.967Z,14.30
2023-01-29T06:01:22.464Z,13.03
2023-01-29T06:03:49.507Z,14.73
2023-01-29T06:06:17.053Z,12.80
2023-01-29T06:08:44.303Z,13.63
2023-01-29T06:11:14.420Z,13.10
2023-01-29T06:13:41.590Z,13.93
2023-01-29T06:16:10.436Z,13.73
2023-01-29T06:18:39.153Z,14.07
2023-01-29T06:21:09.419Z,13.07
2023-01-29T06:23:36.917Z,13.50
2023-01-29T06:26:16.830Z,13.93
2023-01-29T06:28:45.999Z,12.80
2023-01-29T06:31:32.995Z,13.93
2023-01-29T06:33:59.978Z,14.07
2023-01-29T06:36:27.036Z,13.30
2023-01-29T06:38:53.981Z,13.33
2023-01-29T06:41:25.452Z,13.60
2023-01-29T06:43:52.984Z,16.50
2023-01-29T06:46:20.102Z,14.60
2023-01-29T06:48:47.191Z,18.37
2023-01-29T06:51:14.273Z,22.83
2023-01-29T06:53:45.830Z,32.97
2023-01-29T06:56:13.388Z,14.73
2023-01-29T06:58:40.426Z,14.80
2023-01-29T07:01:17.531Z,14.13
2023-01-29T07:03:56.125Z,13.60
2023-01-29T07:06:30.463Z,14.70
2023-01-29T07:08:57.554Z,14.30
2023-01-29T07:11:24.827Z,14.30
2023-01-29T07:13:51.796Z,13.53
2023-01-29T07:16:19.330Z,14.90
2023-01-29T07:18:53.548Z,16.10
2023-01-29T07:21:20.570Z,14.90
2023-01-29T07:23:47.639Z,15.60
2023-01-29T07:26:14.594Z,14.87
2023-01-29T07:28:42.036Z,14.37
2023-01-29T07:31:12.722Z,17.00
2023-01-29T07:33:39.819Z,15.40
2023-01-29T07:36:11.995Z,18.10
2023-01-29T07:38:38.976Z,15.63
2023-01-29T07:41:06.215Z,15.27
2023-01-29T07:43:33.349Z,31.13
2023-01-29T07:46:04.821Z,20.10
2023-01-29T07:48:32.007Z,16.23
2023-01-29T07:50:59.155Z,16.43
2023-01-29T07:53:27.478Z,15.70
2023-01-29T07:55:54.440Z,16.90
2023-01-29T07:58:21.409Z,16.23
2023-01-29T08:00:48.410Z,15.80
2023-01-29T08:03:20.111Z,15.50
2023-01-29T08:05:47.848Z,15.70
2023-01-29T08:08:15.400Z,16.60
2023-01-29T08:10:43.051Z,17.20
2023-01-29T08:13:10.142Z,16.37
2023-01-29T08:15:39.199Z,18.13
2023-01-29T08:18:07.009Z,15.97
2023-01-29T08:20:34.008Z,15.40
2023-01-29T08:23:12.938Z,15.93
2023-01-29T08:25:40.012Z,16.10
2023-01-29T08:28:07.278Z,15.47
2023-01-29T08:30:35.228Z,16.60
2023-01-29T08:33:04.493Z,16.30
2023-01-29T08:35:31.977Z,15.73
2023-01-29T08:38:03.558Z,16.00
2023-01-29T08:40:34.168Z,16.50
2023-01-29T08:43:09.127Z,15.93
2023-01-29T08:45:42.354Z,16.03
2023-01-29T08:48:10.188Z,16.77
2023-01-29T08:50:37.879Z,18.57
2023-01-29T08:53:08.241Z,18.97
2023-01-29T08:55:42.525Z,16.70
2023-01-29T08:58:11.810Z,16.07
2023-01-29T09:00:39.286Z,17.23
2023-01-29T09:03:07.989Z,16.77
2023-01-29T09:05:39.626Z,17.53
2023-01-29T09:08:08.087Z,16.10
2023-01-29T09:10:35.433Z,17.00
2023-01-29T09:13:02.651Z,16.83
2023-01-29T09:15:29.622Z,15.23
2023-01-29T09:17:56.704Z,22.97
2023-01-29T09:20:23.764Z,21.57
2023-01-29T09:22:53.653Z,15.77
2023-01-29T09:25:20.625Z,15.80
2023-01-29T09:27:47.591Z,15.17
2023-01-29T09:30:14.996Z,16.43
2023-01-29T09:32:57.518Z,14.60
2023-01-29T09:35:24.755Z,14.37
2023-01-29T09:37:52.657Z,14.20
2023-01-29T09:40:57.419Z,13.93
2023-01-29T09:43:44.014Z,13.40
2023-01-29T09:46:41.265Z,14.87
2023-01-29T09:49:32.435Z,14.40
2023-01-29T09:52:05.985Z,14.80
2023-01-29T09:55:00.031Z,13.90
2023-01-29T09:57:42.822Z,12.07
2023-01-29T10:00:36.592Z,13.63
2023-01-29T10:03:54.665Z,13.23
2023-01-29T10:06:46.456Z,12.63
2023-01-29T10:09:59.829Z,13.27
2023-01-29T10:12:59.029Z,12.90
2023-01-29T10:15:57.821Z,12.73
2023-01-29T10:18:33.767Z,12.80
2023-01-29T10:21:19.615Z,11.93
2023-01-29T10:24:22.441Z,10.90
2023-01-29T10:26:52.406Z,11.87
2023-01-29T10:29:22.110Z,13.60
2023-01-29T10:32:05.964Z,12.27
2023-01-29T10:34:46.905Z,12.17
2023-01-29T10:37:34.540Z,15.10
2023-01-29T10:40:02.266Z,14.97
2023-01-29T10:43:04.850Z,13.87
2023-01-29T10:45:48.816Z,10.93
2023-01-29T10:48:47.527Z,11.47
2023-01-29T10:51:42.033Z,10.00
2023-01-29T10:54:42.483Z,11.13
2023-01-29T10:57:49.044Z,10.20
2023-01-29T11:00:38.755Z,10.40
2023-01-29T11:03:27.823Z,10.80
2023-01-29T11:06:41.338Z,11.00
2023-01-29T11:09:11.259Z,11.03
2023-01-29T11:11:59.516Z,10.97
2023-01-29T11:14:44.640Z,10.87
2023-01-29T11:17:22.014Z,10.90
2023-01-29T11:19:51.762Z,10.07
2023-01-29T11:22:25.602Z,10.13
2023-01-29T11:25:11.107Z,9.93
2023-01-29T11:27:50.190Z,11.47
2023-01-29T11:30:36.290Z,9.30
2023-01-29T11:33:20.727Z,10.47
2023-01-29T11:35:47.906Z,10.50
2023-01-29T11:38:23.331Z,9.77
2023-01-29T11:40:50.747Z,10.83
2023-01-29T11:43:26.431Z,9.43
2023-01-29T11:45:57.755Z,9.27
2023-01-29T11:48:51.377Z,10.40
2023-01-29T11:51:27.649Z,9.30
2023-01-29T11:53:59.066Z,8.97
2023-01-29T11:56:39.382Z,10.07
2023-01-29T11:59:08.359Z,9.90
2023-01-29T12:01:39.304Z,9.80
2023-01-29T12:04:39.219Z,10.33
2023-01-29T12:07:14.898Z,10.07
2023-01-29T12:09:42.334Z,9.40
2023-01-29T12:12:40.844Z,8.57
2023-01-29T12:15:25.049Z,9.20
2023-01-29T12:18:03.849Z,8.90
2023-01-29T12:20:46.897Z,9.87
2023-01-29T12:23:49.116Z,8.67
2023-01-29T12:26:26.070Z,9.40
2023-01-29T12:29:21.975Z,19.90
2023-01-29T12:32:07.032Z,9.20
2023-01-29T12:34:42.824Z,8.90
2023-01-29T12:37:43.136Z,9.37
2023-01-29T12:40:19.207Z,9.63
2023-01-29T12:42:52.204Z,7.60
2023-01-29T12:45:24.020Z,9.50
2023-01-29T12:48:02.236Z,10.43
2023-01-29T12:50:33.486Z,9.57
2023-01-29T12:53:18.711Z,9.77
2023-01-29T12:55:55.328Z,10.30
2023-01-29T12:58:28.711Z,10.03
2023-01-29T13:01:03.695Z,9.40
2023-01-29T13:03:48.169Z,9.33
2023-01-29T13:06:26.703Z,9.80
2023-01-29T13:08:59.395Z,9.60
2023-01-29T13:11:38.255Z,9.50
2023-01-29T13:14:50.534Z,10.33
2023-01-29T13:17:36.337Z,9.70
2023-01-29T13:20:30.336Z,10.47
2023-01-29T13:23:06.522Z,10.07
2023-01-29T13:25:33.552Z,9.70
2023-01-29T13:28:00.994Z,8.70
2023-01-29T13:30:31.142Z,9.80
2023-01-29T13:33:09.862Z,9.40
2023-01-29T13:35:43.034Z,10.20
2023-01-29T13:38:30.546Z,9.30
2023-01-29T13:41:03.695Z,11.50
2023-01-29T13:43:39.945Z,10.20
2023-01-29T13:46:15.127Z,10.53
2023-01-29T13:48:58.294Z,9.60
2023-01-29T13:51:35.693Z,10.33
2023-01-29T13:54:18.656Z,10.50
2023-01-29T13:57:03.314Z,9.93
2023-01-29T13:59:53.265Z,10.13
2023-01-29T14:02:28.105Z,10.40
2023-01-29T14:05:32.204Z,11.67
2023-01-29T14:08:34.393Z,10.13
2023-01-29T14:11:21.885Z,10.97
2023-01-29T14:13:52.299Z,10.60
2023-01-29T14:16:19.169Z,12.97
2023-01-29T14:19:01.411Z,11.10
2023-01-29T14:21:34.404Z,11.97
2023-01-29T14:24:22.196Z,11.60
2023-01-29T14:26:54.659Z,13.80
2023-01-29T14:29:39.433Z,13.37
2023-01-29T14:32:06.295Z,12.43
2023-01-29T14:34:45.293Z,12.50
2023-01-29T14:37:25.933Z,16.70
2023-01-29T14:39:59.371Z,13.63
2023-01-29T14:42:58.710Z,12.37
2023-01-29T14:45:33.569Z,13.47
2023-01-29T14:48:10.735Z,12.83
2023-01-29T14:50:41.129Z,13.30
2023-01-29T14:53:40.222Z,12.80
2023-01-29T14:56:20.957Z,13.90
2023-01-29T14:59:19.743Z,13.47
2023-01-29T15:01:58.913Z,14.10
2023-01-29T15:04:47.998Z,12.23
2023-01-29T15:07:36.166Z,12.60
2023-01-29T15:10:24.100Z,13.23
2023-01-29T15:13:04.686Z,12.90
2023-01-29T15:15:38.363Z,13.07
2023-01-29T15:18:16.279Z,13.03
2023-01-29T15:20:46.600Z,13.20
2023-01-29T15:23:34.527Z,11.90
2023-01-29T15:26:06.494Z,13.23
2023-01-29T15:28:35.571Z,11.73
2023-01-29T15:31:07.993Z,12.20
2023-01-29T15:33:38.688Z,12.10
2023-01-29T15:36:08.233Z,11.60
2023-01-29T15:38:36.059Z,13.27
2023-01-29T15:41:23.756Z,14.27
2023-01-29T15:43:57.916Z,13.87
2023-01-29T15:46:39.620Z,13.53
2023-01-29T15:49:11.853Z,12.47
2023-01-29T15:51:39.636Z,12.10
2023-01-29T15:54:15.634Z,11.77
2023-01-29T15:56:51.377Z,12.30
2023-01-29T15:59:23.239Z,12.10
2023-01-29T16:01:53.568Z,12.93
2023-01-29T16:04:31.799Z,12.27
2023-01-29T16:07:00.844Z,12.20
2023-01-29T16:09:30.607Z,12.70
2023-01-29T16:11:59.278Z,12.60
2023-01-29T16:14:28.052Z,12.40
2023-01-29T16:16:55.250Z,12.30
2023-01-29T16:19:27.426Z,13.10
2023-01-29T16:22:04.383Z,12.47
2023-01-29T16:24:39.177Z,12.17
2023-01-29T16:27:13.777Z,12.00
2023-01-29T16:29:43.441Z,12.07
2023-01-29T16:32:13.873Z,16.00
2023-01-29T16:35:04.423Z,14.00
2023-01-29T16:37:36.438Z,12.67
2023-01-29T16:40:35.516Z,12.40
2023-01-29T16:43:17.499Z,12.40
2023-01-29T16:46:15.958Z,12.70
2023-01-29T16:48:42.986Z,12.40
2023-01-29T16:51:27.088Z,11.93
2023-01-29T16:54:23.337Z,12.80
2023-01-29T16:56:59.842Z,12.60
2023-01-29T16:59:36.434Z,12.67
2023-01-29T17:02:04.652Z,14.07
2023-01-29T17:04:35.560Z,13.00
2023-01-29T17:07:03.008Z,13.57
2023-01-29T17:09:35.345Z,12.77
2023-01-29T17:12:08.641Z,12.90
2023-01-29T17:14:42.022Z,12.53
2023-01-29T17:17:16.364Z,12.93
2023-01-29T17:19:45.540Z,12.73
2023-01-29T17:22:15.595Z,12.37
2023-01-29T17:24:43.004Z,13.70
2023-01-29T17:27:22.542Z,12.60
2023-01-29T17:29:53.516Z,12.57
2023-01-29T17:32:20.686Z,13.40
2023-01-29T17:34:47.664Z,12.23
2023-01-29T17:37:15.943Z,12.53
2023-01-29T17:39:50.436Z,13.90
2023-01-29T17:42:20.164Z,12.40
2023-01-29T17:44:47.151Z,11.97
2023-01-29T17:47:18.022Z,11.83
2023-01-29T17:49:45.121Z,12.60
2023-01-29T17:52:14.588Z,12.80
2023-01-29T17:54:41.552Z,12.20
2023-01-29T17:57:14.065Z,11.63
2023-01-29T17:59:41.020Z,13.20
2023-01-29T18:02:08.753Z,12.60
2023-01-29T18:04:55.823Z,12.23
2023-01-29T18:07:22.824Z,11.77
2023-01-29T18:09:49.792Z,12.40
2023-01-29T18:12:16.764Z,11.43
2023-01-29T18:14:43.722Z,12.43
2023-01-29T18:17:10.687Z,13.17
2023-01-29T18:19:37.640Z,10.97
2023-01-29T18:22:04.701Z,12.70
2023-01-29T18:24:31.724Z,13.67
2023-01-29T18:26:58.663Z,12.23
2023-01-29T18:29:30.029Z,16.50
2023-01-29T18:31:57.358Z,13.63
2023-01-29T18:34:26.672Z,12.17
2023-01-29T18:36:53.658Z,15.40
2023-01-29T18:39:23.004Z,12.33
2023-01-29T18:41:49.941Z,11.83
2023-01-29T18:44:17.113Z,10.47
2023-01-29T18:46:44.095Z,10.20
2023-01-29T18:49:11.076Z,11.33
2023-01-29T18:51:38.153Z,10.83
2023-01-29T18:54:05.274Z,10.60
2023-01-29T18:56:32.223Z,10.73
2023-01-29T18:58:59.214Z,11.27
2023-01-29T19:01:28.836Z,10.73
2023-01-29T19:03:58.191Z,11.20
2023-01-29T19:06:27.645Z,10.70
2023-01-29T19:08:54.613Z,11.70
2023-01-29T19:11:21.547Z,10.17
2023-01-29T19:13:53.313Z,9.80
2023-01-29T19:16:20.433Z,9.83
2023-01-29T19:18:50.434Z,10.00
2023-01-29T19:21:18.228Z,11.00
2023-01-29T19:23:45.257Z,10.70
2023-01-29T19:26:13.436Z,10.27
2023-01-29T19:28:42.827Z,7.70
2023-01-29T19:31:12.464Z,8.70
2023-01-29T19:33:42.065Z,9.83
2023-01-29T19:36:09.543Z,9.70
2023-01-29T19:38:38.716Z,8.93
2023-01-29T19:41:06.436Z,8.97
2023-01-29T19:43:33.530Z,9.87
2023-01-29T19:46:02.134Z,8.90
2023-01-29T19:48:34.699Z,8.13
2023-01-29T19:51:05.228Z,8.73
2023-01-29T19:53:32.221Z,7.93
2023-01-29T19:56:05.997Z,9.20
2023-01-29T19:58:34.259Z,7.90
2023-01-29T20:01:12.569Z,8.07
2023-01-29T20:03:47.932Z,8.20
2023-01-29T20:06:20.447Z,8.53
2023-01-29T20:08:47.480Z,6.63
2023-01-29T20:11:16.351Z,14.10
2023-01-29T20:13:47.078Z,7.63
2023-01-29T20:16:14.311Z,7.20
2023-01-29T20:18:41.317Z,6.93
2023-01-29T20:21:12.269Z,6.90
2023-01-29T20:23:40.080Z,7.00
2023-01-29T20:26:15.801Z,6.63
2023-01-29T20:28:45.641Z,6.80
2023-01-29T20:31:12.794Z,8.20
2023-01-29T20:33:40.412Z,7.60
2023-01-29T20:36:12.373Z,8.00
2023-01-29T20:38:41.806Z,7.40
2023-01-29T20:41:16.382Z,7.80
2023-01-29T20:43:44.925Z,8.03
2023-01-29T20:46:14.766Z,8.23
2023-01-29T20:48:42.277Z,7.60
2023-01-29T20:51:16.230Z,7.20
2023-01-29T20:53:46.367Z,7.37
2023-01-29T20:56:15.424Z,7.80
2023-01-29T20:58:44.340Z,7.27
2023-01-29T21:01:15.699Z,6.77
2023-01-29T21:03:43.167Z,7.67
2023-01-29T21:06:11.664Z,9.30
2023-01-29T21:08:39.952Z,7.70
2023-01-29T21:11:08.828Z,6.93
2023-01-29T21:13:36.537Z,7.87
2023-01-29T21:16:04.284Z,6.73
2023-01-29T21:18:32.269Z,6.53
2023-01-29T21:20:59.372Z,6.97
2023-01-29T21:23:26.335Z,6.43
2023-01-29T21:25:53.283Z,6.93
2023-01-29T21:28:20.360Z,7.63
2023-01-29T21:30:47.969Z,7.77
2023-01-29T21:33:14.933Z,6.50
2023-01-29T21:35:41.957Z,6.80
2023-01-29T21:38:09.294Z,7.40
2023-01-29T21:40:36.407Z,6.83
2023-01-29T21:43:13.305Z,6.50
2023-01-29T21:45:40.923Z,7.40
2023-01-29T21:48:09.890Z,7.20
2023-01-29T21:50:37.825Z,7.40
2023-01-29T21:53:04.924Z,7.43
2023-01-29T21:55:32.563Z,7.73
2023-01-29T21:58:00.474Z,6.77
2023-01-29T22:00:28.146Z,7.20
2023-01-29T22:02:55.258Z,6.80
2023-01-29T22:05:22.243Z,6.23
2023-01-29T22:07:51.569Z,8.17
2023-01-29T22:10:20.131Z,7.80
2023-01-29T22:12:48.325Z,7.27
2023-01-29T22:15:18.293Z,7.67
2023-01-29T22:17:45.227Z,7.83
2023-01-29T22:20:14.768Z,8.03
2023-01-29T22:22:42.087Z,7.93
2023-01-29T22:25:10.309Z,7.17
2023-01-29T22:27:37.614Z,8.20
2023-01-29T22:30:06.307Z,7.50
2023-01-29T22:32:33.827Z,7.90
2023-01-29T22:35:00.859Z,7.40
2023-01-29T22:37:27.813Z,8.63
2023-01-29T22:39:54.758Z,8.07
2023-01-29T22:42:21.773Z,8.50
2023-01-29T22:44:48.836Z,7.70
2023-01-29T22:47:16.108Z,7.60
2023-01-29T22:49:45.596Z,7.60
2023-01-29T22:52:12.715Z,7.00
2023-01-29T22:54:44.657Z,7.53
2023-01-29T22:57:14.121Z,7.93
2023-01-29T22:59:41.690Z,7.33
2023-01-29T23:02:09.403Z,7.83
2023-01-29T23:04:37.020Z,8.40
2023-01-29T23:07:05.436Z,7.20
2023-01-29T23:09:32.444Z,7.30
2023-01-29T23:11:59.426Z,7.03
2023-01-29T23:14:26.400Z,7.80
2023-01-29T23:16:53.403Z,7.00
2023-01-29T23:19:20.514Z,7.30
2023-01-29T23:21:47.475Z,7.00
2023-01-29T23:24:14.789Z,7.23
2023-01-29T23:27:00.415Z,7.40
2023-01-29T23:29:27.411Z,7.73
2023-01-29T23:31:54.576Z,7.93
2023-01-29T23:34:22.363Z,7.00
2023-01-29T23:36:49.457Z,6.97
2023-01-29T23:39:16.655Z,7.60
2023-01-29T23:41:43.959Z,7.07
2023-01-29T23:44:10.903Z,8.30
2023-01-29T23:46:37.898Z,7.07
2023-01-29T23:49:07.510Z,8.07
2023-01-29T23:51:34.525Z,7.93
2023-01-29T23:54:01.523Z,7.97
2023-01-29T23:56:28.685Z,9.17
2023-01-29T23:58:57.508Z,7.13
